createdAt,value
2023-04-02T00:02:09.878Z,38.92
2023-04-02T00:04:38.073Z,39.18
2023-04-02T00:07:30.922Z,39.16
2023-04-02T00:09:57.788Z,39.57
2023-04-02T00:12:24.295Z,39.16
2023-04-02T00:14:52.213Z,39.05
2023-04-02T00:17:19.081Z,39.13
2023-04-02T00:19:50.018Z,39.49
2023-04-02T00:22:18.178Z,39.54
2023-04-02T00:24:44.765Z,39.38
2023-04-02T00:27:12.047Z,39.14
2023-04-02T00:29:45.249Z,39.17
2023-04-02T00:32:13.956Z,39.43
2023-04-02T00:34:40.538Z,39.10
2023-04-02T00:37:07.064Z,39.46
2023-04-02T00:39:34.850Z,39.45
2023-04-02T00:42:07.638Z,39.24
2023-04-02T00:44:34.570Z,39.05
2023-04-02T00:47:04.838Z,39.04
2023-04-02T00:49:40.934Z,39.33
2023-04-02T00:52:32.279Z,39.09
2023-04-02T00:55:06.937Z,39.45
2023-04-02T00:57:33.678Z,39.20
2023-04-02T01:00:19.013Z,39.20
2023-04-02T01:03:05.612Z,39.57
2023-04-02T01:05:34.684Z,39.48
2023-04-02T01:08:04.416Z,39.17
2023-04-02T01:10:49.989Z,38.98
2023-04-02T01:13:25.931Z,39.43
2023-04-02T01:16:11.650Z,39.31
2023-04-02T01:18:46.253Z,39.26
2023-04-02T01:21:16.057Z,39.16
2023-04-02T01:24:01.329Z,39.17
2023-04-02T01:26:46.348Z,39.15
2023-04-02T01:29:22.734Z,39.23
2023-04-02T01:31:49.449Z,38.97
2023-04-02T01:34:16.977Z,39.01
2023-04-02T01:36:56.219Z,39.04
2023-04-02T01:39:31.876Z,39.07
2023-04-02T01:42:01.343Z,39.05
2023-04-02T01:44:48.033Z,39.41
2023-04-02T01:47:18.828Z,39.38
2023-04-02T01:49:45.776Z,38.92
2023-04-02T01:52:14.665Z,39.16
2023-04-02T01:54:41.207Z,39.10
2023-04-02T01:57:08.202Z,39.39
2023-04-02T01:59:35.754Z,39.00
2023-04-02T02:02:05.099Z,39.34
2023-04-02T02:04:34.620Z,39.36
2023-04-02T02:07:01.165Z,39.26
2023-04-02T02:09:29.652Z,38.96
2023-04-02T02:11:59.605Z,39.22
2023-04-02T02:14:27.124Z,39.40
2023-04-02T02:16:56.615Z,39.52
2023-04-02T02:19:31.251Z,38.98
2023-04-02T02:21:58.679Z,39.00
2023-04-02T02:24:25.900Z,39.37
2023-04-02T02:26:58.401Z,39.30
2023-04-02T02:29:25.016Z,39.14
2023-04-02T02:31:52.632Z,39.11
2023-04-02T02:34:21.040Z,39.31
2023-04-02T02:36:51.360Z,39.51
2023-04-02T02:39:25.946Z,39.19
2023-04-02T02:41:56.256Z,39.50
2023-04-02T02:44:24.799Z,39.32
2023-04-02T02:46:52.439Z,39.34
2023-04-02T02:49:21.373Z,39.16
2023-04-02T02:52:01.905Z,39.10
2023-04-02T02:54:36.812Z,39.44
2023-04-02T02:57:08.180Z,39.31
2023-04-02T02:59:34.754Z,39.43
2023-04-02T03:02:02.728Z,39.33
2023-04-02T03:04:35.631Z,39.05
2023-04-02T03:07:06.653Z,39.05
2023-04-02T03:09:46.046Z,39.26
2023-04-02T03:12:28.562Z,39.44
2023-04-02T03:15:13.910Z,39.03
2023-04-02T03:17:49.621Z,39.41
2023-04-02T03:20:22.036Z,39.06
2023-04-02T03:22:56.652Z,39.38
2023-04-02T03:25:32.876Z,39.19
2023-04-02T03:28:02.811Z,39.06
2023-04-02T03:30:29.306Z,39.38
2023-04-02T03:33:04.810Z,39.18
2023-04-02T03:35:36.480Z,39.07
2023-04-02T03:38:07.826Z,39.17
2023-04-02T03:40:35.776Z,39.37
2023-04-02T03:43:35.030Z,39.15
2023-04-02T03:46:09.743Z,39.31
2023-04-02T03:48:39.932Z,39.43
2023-04-02T03:51:15.228Z,39.41
2023-04-02T03:53:41.936Z,39.37
2023-04-02T03:56:09.029Z,39.25
2023-04-02T03:58:39.369Z,38.93
2023-04-02T04:01:09.402Z,38.95
2023-04-02T04:03:41.895Z,38.97
2023-04-02T04:06:10.579Z,39.11
2023-04-02T04:08:42.423Z,38.95
2023-04-02T04:11:10.319Z,38.92
2023-04-02T04:13:40.549Z,38.68
2023-04-02T04:16:08.435Z,38.72
2023-04-02T04:18:37.985Z,39.13
2023-04-02T04:21:29.862Z,38.66
2023-04-02T04:24:03.742Z,38.66
2023-04-02T04:26:35.173Z,38.68
2023-04-02T04:29:12.379Z,38.67
2023-04-02T04:31:41.367Z,39.08
2023-04-02T04:34:12.778Z,38.68
2023-04-02T04:36:47.812Z,38.66
2023-04-02T04:39:17.490Z,38.94
2023-04-02T04:41:47.213Z,38.71
2023-04-02T04:44:14.745Z,38.61
2023-04-02T04:46:45.271Z,38.73
2023-04-02T04:49:14.443Z,38.76
2023-04-02T04:51:48.463Z,38.77
2023-04-02T04:54:15.664Z,38.90
2023-04-02T04:56:46.908Z,38.58
2023-04-02T04:59:20.484Z,38.97
2023-04-02T05:02:01.930Z,38.89
2023-04-02T05:04:31.113Z,38.66
2023-04-02T05:06:57.929Z,38.85
2023-04-02T05:09:27.455Z,38.81
2023-04-02T05:12:02.474Z,38.95
2023-04-02T05:14:56.848Z,38.70
2023-04-02T05:17:26.336Z,38.65
2023-04-02T05:19:56.837Z,38.63
2023-04-02T05:22:27.151Z,38.59
2023-04-02T05:24:56.696Z,38.46
2023-04-02T05:27:42.183Z,38.73
2023-04-02T05:30:24.736Z,38.60
2023-04-02T05:33:05.141Z,38.60
2023-04-02T05:35:32.772Z,38.54
2023-04-02T05:38:01.681Z,38.90
2023-04-02T05:40:33.802Z,38.53
2023-04-02T05:43:00.416Z,38.93
2023-04-02T05:45:28.737Z,38.80
2023-04-02T05:48:01.559Z,38.91
2023-04-02T05:50:37.078Z,38.39
2023-04-02T05:53:21.650Z,38.55
2023-04-02T05:55:52.371Z,38.57
2023-04-02T05:58:34.709Z,38.31
2023-04-02T06:01:28.153Z,38.80
2023-04-02T06:03:57.495Z,38.72
2023-04-02T06:06:40.014Z,38.84
2023-04-02T06:09:09.009Z,38.67
2023-04-02T06:11:45.455Z,38.47
2023-04-02T06:14:16.186Z,38.02
2023-04-02T06:16:44.263Z,38.31
2023-04-02T06:19:15.927Z,38.44
2023-04-02T06:21:46.440Z,38.50
2023-04-02T06:24:13.676Z,38.59
2023-04-02T06:26:41.839Z,38.22
2023-04-02T06:29:14.416Z,37.96
2023-04-02T06:31:51.252Z,38.13
2023-04-02T06:34:21.600Z,38.03
2023-04-02T06:37:03.916Z,37.87
2023-04-02T06:39:32.771Z,37.87
2023-04-02T06:42:07.456Z,38.04
2023-04-02T06:44:56.781Z,38.43
2023-04-02T06:47:43.863Z,37.81
2023-04-02T06:50:19.226Z,38.35
2023-04-02T06:52:46.593Z,38.31
2023-04-02T06:55:31.795Z,38.11
2023-04-02T06:57:59.369Z,38.22
2023-04-02T07:00:34.921Z,37.96
2023-04-02T07:03:02.915Z,38.07
2023-04-02T07:05:29.542Z,38.14
2023-04-02T07:07:56.969Z,37.75
2023-04-02T07:10:23.613Z,38.04
2023-04-02T07:12:50.196Z,37.57
2023-04-02T07:15:17.389Z,37.48
2023-04-02T07:17:44.105Z,37.55
2023-04-02T07:20:30.950Z,37.74
2023-04-02T07:23:01.720Z,37.48
2023-04-02T07:25:28.219Z,37.52
2023-04-02T07:27:54.721Z,37.85
2023-04-02T07:30:21.300Z,37.30
2023-04-02T07:32:48.132Z,37.56
2023-04-02T07:35:14.650Z,37.48
2023-04-02T07:37:41.195Z,37.43
2023-04-02T07:40:14.410Z,37.37
2023-04-02T07:42:41.039Z,37.27
2023-04-02T07:45:07.926Z,37.09
2023-04-02T07:47:34.473Z,37.57
2023-04-02T07:50:00.951Z,37.12
2023-04-02T07:52:27.453Z,37.07
2023-04-02T07:54:53.902Z,37.12
2023-04-02T07:57:20.574Z,37.16
2023-04-02T07:59:47.413Z,37.17
2023-04-02T08:02:21.055Z,37.09
2023-04-02T08:04:51.285Z,37.18
2023-04-02T08:07:18.855Z,37.02
2023-04-02T08:09:45.486Z,36.95
2023-04-02T08:12:14.691Z,36.72
2023-04-02T08:14:41.413Z,36.91
2023-04-02T08:17:07.894Z,36.83
2023-04-02T08:19:44.411Z,37.08
2023-04-02T08:22:18.394Z,37.00
2023-04-02T08:24:44.946Z,36.96
2023-04-02T08:27:13.635Z,37.11
2023-04-02T08:29:40.214Z,37.00
2023-04-02T08:32:07.566Z,36.71
2023-04-02T08:34:34.028Z,36.75
2023-04-02T08:37:00.625Z,36.61
2023-04-02T08:39:29.489Z,36.72
2023-04-02T08:41:56.388Z,36.58
2023-04-02T08:44:32.334Z,36.61
2023-04-02T08:47:01.336Z,36.68
2023-04-02T08:49:32.137Z,36.73
2023-04-02T08:51:58.679Z,36.63
2023-04-02T08:54:31.174Z,36.63
2023-04-02T08:57:03.486Z,36.55
2023-04-02T08:59:37.039Z,36.39
2023-04-02T09:02:06.311Z,36.42
2023-04-02T09:04:32.933Z,36.18
2023-04-02T09:06:59.431Z,36.24
2023-04-02T09:09:26.063Z,36.08
2023-04-02T09:12:02.873Z,36.34
2023-04-02T09:14:38.584Z,36.29
2023-04-02T09:17:05.723Z,36.55
2023-04-02T09:19:38.988Z,36.63
2023-04-02T09:22:07.721Z,36.80
2023-04-02T09:24:34.622Z,36.87
2023-04-02T09:27:01.318Z,36.56
2023-04-02T09:29:44.551Z,36.74
2023-04-02T09:32:13.861Z,36.82
2023-04-02T09:34:40.535Z,36.83
2023-04-02T09:37:17.407Z,36.86
2023-04-02T09:39:43.936Z,36.44
2023-04-02T09:42:29.075Z,36.41
2023-04-02T09:45:15.927Z,36.16
2023-04-02T09:47:42.645Z,36.16
2023-04-02T09:50:21.331Z,35.79
2023-04-02T09:52:48.350Z,35.73
2023-04-02T09:55:15.352Z,35.66
2023-04-02T09:57:42.255Z,35.59
2023-04-02T10:00:29.808Z,35.74
2023-04-02T10:03:12.089Z,35.86
2023-04-02T10:05:41.027Z,35.77
2023-04-02T10:08:34.549Z,35.86
2023-04-02T10:11:02.070Z,35.98
2023-04-02T10:13:34.101Z,35.80
2023-04-02T10:16:02.475Z,36.03
2023-04-02T10:18:28.927Z,36.10
2023-04-02T10:20:55.724Z,36.09
2023-04-02T10:23:23.298Z,35.91
2023-04-02T10:25:53.403Z,36.18
2023-04-02T10:28:34.660Z,36.05
2023-04-02T10:31:03.595Z,36.20
2023-04-02T10:33:32.227Z,36.13
2023-04-02T10:36:08.331Z,36.14
2023-04-02T10:38:38.701Z,36.31
2023-04-02T10:41:24.145Z,36.55
2023-04-02T10:43:50.770Z,36.42
2023-04-02T10:46:25.864Z,36.42
2023-04-02T10:48:56.104Z,36.48
2023-04-02T10:51:41.504Z,36.40
2023-04-02T10:54:07.969Z,36.48
2023-04-02T10:56:44.143Z,36.40
2023-04-02T10:59:17.158Z,36.43
2023-04-02T11:01:43.831Z,36.37
2023-04-02T11:04:23.791Z,36.44
2023-04-02T11:06:58.120Z,36.75
2023-04-02T11:09:31.883Z,36.43
2023-04-02T11:11:58.836Z,36.36
2023-04-02T11:14:26.287Z,36.47
2023-04-02T11:16:53.345Z,36.27
2023-04-02T11:19:19.906Z,36.62
2023-04-02T11:21:59.606Z,36.58
2023-04-02T11:24:31.479Z,36.70
2023-04-02T11:27:03.958Z,36.72
2023-04-02T11:29:30.758Z,36.69
2023-04-02T11:32:29.942Z,36.81
2023-04-02T11:35:06.521Z,36.70
2023-04-02T11:37:44.382Z,36.80
2023-04-02T11:40:10.848Z,36.73
2023-04-02T11:42:47.126Z,36.95
2023-04-02T11:45:22.900Z,36.83
2023-04-02T11:48:09.368Z,36.39
2023-04-02T11:50:36.932Z,36.45
2023-04-02T11:53:13.094Z,36.27
2023-04-02T11:55:40.475Z,36.91
2023-04-02T11:58:10.945Z,36.72
2023-04-02T12:00:42.125Z,37.22
2023-04-02T12:03:28.355Z,37.17
2023-04-02T12:05:58.527Z,37.19
2023-04-02T12:08:44.216Z,37.26
2023-04-02T12:11:17.401Z,37.14
2023-04-02T12:13:43.839Z,37.25
2023-04-02T12:16:15.488Z,37.37
2023-04-02T12:18:46.739Z,37.19
2023-04-02T12:21:17.229Z,37.24
2023-04-02T12:23:45.274Z,37.16
2023-04-02T12:26:32.194Z,37.21
2023-04-02T12:29:17.546Z,37.41
2023-04-02T12:31:47.807Z,37.12
2023-04-02T12:34:15.513Z,37.48
2023-04-02T12:36:51.363Z,37.57
2023-04-02T12:39:18.276Z,37.88
2023-04-02T12:41:44.719Z,37.71
2023-04-02T12:44:18.448Z,37.60
2023-04-02T12:46:45.630Z,37.84
2023-04-02T12:49:30.779Z,37.98
2023-04-02T12:51:57.365Z,37.84
2023-04-02T12:54:23.832Z,37.97
2023-04-02T12:56:50.791Z,37.85
2023-04-02T12:59:27.633Z,38.12
2023-04-02T13:02:01.325Z,38.01
2023-04-02T13:04:28.041Z,38.36
2023-04-02T13:06:56.389Z,38.24
2023-04-02T13:09:35.793Z,40.05
2023-04-02T13:12:02.720Z,40.21
2023-04-02T13:14:29.228Z,39.78
2023-04-02T13:16:56.043Z,40.08
2023-04-02T13:19:29.811Z,38.76
2023-04-02T13:21:57.272Z,38.50
2023-04-02T13:24:24.668Z,38.74
2023-04-02T13:26:51.433Z,39.14
2023-04-02T13:29:19.824Z,39.86
2023-04-02T13:31:46.342Z,39.92
2023-04-02T13:34:12.828Z,40.06
2023-04-02T13:36:39.334Z,39.99
2023-04-02T13:39:05.991Z,40.25
2023-04-02T13:41:35.225Z,40.18
2023-04-02T13:44:02.438Z,40.32
2023-04-02T13:46:30.104Z,40.42
2023-04-02T13:48:57.023Z,40.37
2023-04-02T13:51:35.052Z,40.45
2023-04-02T13:54:01.551Z,40.53
2023-04-02T13:56:28.002Z,40.62
2023-04-02T13:58:54.519Z,40.59
2023-04-02T14:01:21.285Z,40.60
2023-04-02T14:03:47.800Z,40.52
2023-04-02T14:06:49.041Z,40.42
2023-04-02T14:09:21.373Z,40.84
2023-04-02T14:11:56.267Z,40.61
2023-04-02T14:14:38.074Z,40.64
2023-04-02T14:17:04.991Z,40.93
2023-04-02T14:19:42.240Z,41.03
2023-04-02T14:22:13.000Z,41.00
2023-04-02T14:25:01.760Z,41.04
2023-04-02T14:27:28.257Z,40.96
2023-04-02T14:30:01.225Z,41.47
2023-04-02T14:32:33.743Z,41.84
2023-04-02T14:35:06.965Z,42.01
2023-04-02T14:37:42.064Z,42.06
2023-04-02T14:40:27.358Z,42.43
2023-04-02T14:42:57.126Z,42.59
2023-04-02T14:45:28.153Z,44.09
2023-04-02T14:47:55.882Z,43.75
2023-04-02T14:50:27.850Z,44.43
2023-04-02T14:52:56.616Z,44.55
2023-04-02T14:55:43.980Z,44.29
2023-04-02T14:58:13.178Z,44.17
2023-04-02T15:00:52.144Z,43.71
2023-04-02T15:03:21.904Z,43.38
2023-04-02T15:05:48.425Z,42.98
2023-04-02T15:08:14.893Z,43.35
2023-04-02T15:10:56.158Z,43.45
2023-04-02T15:13:28.742Z,44.11
2023-04-02T15:15:59.249Z,44.12
2023-04-02T15:18:26.017Z,44.33
2023-04-02T15:20:52.665Z,43.73
2023-04-02T15:23:22.216Z,44.25
2023-04-02T15:25:49.070Z,43.79
2023-04-02T15:28:26.813Z,43.73
2023-04-02T15:30:54.512Z,44.26
2023-04-02T15:33:31.189Z,44.28
2023-04-02T15:36:08.815Z,44.40
2023-04-02T15:38:41.085Z,44.02
2023-04-02T15:41:13.641Z,44.15
2023-04-02T15:43:40.086Z,44.30
2023-04-02T15:46:21.955Z,44.27
2023-04-02T15:48:48.619Z,44.54
2023-04-02T15:51:15.031Z,44.34
2023-04-02T15:53:51.595Z,44.44
2023-04-02T15:56:26.589Z,44.15
2023-04-02T15:58:59.924Z,44.26
2023-04-02T16:01:32.615Z,43.70
2023-04-02T16:04:04.012Z,43.57
2023-04-02T16:06:49.317Z,43.67
2023-04-02T16:09:22.137Z,44.26
2023-04-02T16:11:50.753Z,43.93
2023-04-02T16:14:27.402Z,44.57
2023-04-02T16:16:55.950Z,44.94
2023-04-02T16:19:35.613Z,44.61
2023-04-02T16:22:02.248Z,45.01
2023-04-02T16:24:28.727Z,44.53
2023-04-02T16:26:57.576Z,44.73
2023-04-02T16:29:53.439Z,44.42
2023-04-02T16:32:39.932Z,44.40
2023-04-02T16:35:38.044Z,44.31
2023-04-02T16:38:09.359Z,44.75
2023-04-02T16:40:42.036Z,44.60
2023-04-02T16:43:13.220Z,45.01
2023-04-02T16:45:52.900Z,44.95
2023-04-02T16:48:37.586Z,44.60
2023-04-02T16:51:04.347Z,44.68
2023-04-02T16:53:33.852Z,44.39
2023-04-02T16:56:21.895Z,44.79
2023-04-02T16:58:48.917Z,44.75
2023-04-02T17:01:25.814Z,44.55
2023-04-02T17:03:58.392Z,44.49
2023-04-02T17:06:33.099Z,44.34
2023-04-02T17:09:05.069Z,44.77
2023-04-02T17:11:50.358Z,45.26
2023-04-02T17:14:37.183Z,44.53
2023-04-02T17:17:04.654Z,44.61
2023-04-02T17:19:31.839Z,44.66
2023-04-02T17:22:02.485Z,44.77
2023-04-02T17:25:04.365Z,45.02
2023-04-02T17:27:37.022Z,45.13
2023-04-02T17:30:05.059Z,45.10
2023-04-02T17:32:36.904Z,44.97
2023-04-02T17:35:16.268Z,45.40
2023-04-02T17:37:44.223Z,45.29
2023-04-02T17:40:13.694Z,45.31
2023-04-02T17:42:46.988Z,45.23
2023-04-02T17:45:15.284Z,45.71
2023-04-02T17:47:54.929Z,45.46
2023-04-02T17:50:29.619Z,45.53
2023-04-02T17:52:59.928Z,46.28
2023-04-02T17:55:40.433Z,45.86
2023-04-02T17:58:11.106Z,45.58
2023-04-02T18:00:46.824Z,45.68
2023-04-02T18:03:18.512Z,45.10
2023-04-02T18:05:46.040Z,45.00
2023-04-02T18:08:44.961Z,45.14
2023-04-02T18:11:18.837Z,45.13
2023-04-02T18:13:48.290Z,45.98
2023-04-02T18:16:23.224Z,45.31
2023-04-02T18:18:55.858Z,45.66
2023-04-02T18:21:31.554Z,45.90
2023-04-02T18:24:01.993Z,45.86
2023-04-02T18:26:47.569Z,45.72
2023-04-02T18:29:23.421Z,45.91
2023-04-02T18:31:56.815Z,45.60
2023-04-02T18:34:32.673Z,45.73
2023-04-02T18:37:14.783Z,45.85
2023-04-02T18:39:41.347Z,46.05
2023-04-02T18:42:26.605Z,46.25
2023-04-02T18:45:03.393Z,45.76
2023-04-02T18:47:48.189Z,45.63
2023-04-02T18:50:18.749Z,45.97
2023-04-02T18:52:45.387Z,45.64
2023-04-02T18:55:30.912Z,45.51
2023-04-02T18:57:59.255Z,45.67
2023-04-02T19:00:26.237Z,45.54
2023-04-02T19:03:31.239Z,45.73
2023-04-02T19:06:19.196Z,45.96
2023-04-02T19:08:48.254Z,45.99
2023-04-02T19:11:18.337Z,46.06
2023-04-02T19:13:51.433Z,46.32
2023-04-02T19:16:17.931Z,45.69
2023-04-02T19:18:51.762Z,46.03
2023-04-02T19:21:30.637Z,45.75
2023-04-02T19:23:59.880Z,45.98
2023-04-02T19:26:27.967Z,45.72
2023-04-02T19:28:54.428Z,46.12
2023-04-02T19:31:33.217Z,46.30
2023-04-02T19:34:06.734Z,46.27
2023-04-02T19:36:41.504Z,46.28
2023-04-02T19:39:17.134Z,45.67
2023-04-02T19:41:48.190Z,46.11
2023-04-02T19:44:15.287Z,45.70
2023-04-02T19:46:41.850Z,46.02
2023-04-02T19:49:09.701Z,45.68
2023-04-02T19:51:36.214Z,45.78
2023-04-02T19:54:02.726Z,45.61
2023-04-02T19:56:29.417Z,45.61
2023-04-02T19:58:56.800Z,45.64
2023-04-02T20:01:24.812Z,45.77
2023-04-02T20:03:51.488Z,45.61
2023-04-02T20:06:18.058Z,45.84
2023-04-02T20:08:45.441Z,45.93
2023-04-02T20:11:11.880Z,45.86
2023-04-02T20:13:38.442Z,45.71
2023-04-02T20:16:05.325Z,46.07
2023-04-02T20:18:32.024Z,46.27
2023-04-02T20:20:58.530Z,45.65
2023-04-02T20:23:25.073Z,45.91
2023-04-02T20:25:53.156Z,45.75
2023-04-02T20:28:20.135Z,46.41
2023-04-02T20:30:46.774Z,45.92
2023-04-02T20:33:13.395Z,46.02
2023-04-02T20:35:40.086Z,45.87
2023-04-02T20:38:08.184Z,46.09
2023-04-02T20:40:35.058Z,45.71
2023-04-02T20:43:02.080Z,45.83
2023-04-02T20:45:29.258Z,46.14
2023-04-02T20:47:55.806Z,46.38
2023-04-02T20:50:22.425Z,46.03
2023-04-02T20:52:49.087Z,46.34
2023-04-02T20:55:15.625Z,45.83
2023-04-02T20:57:42.331Z,45.83
2023-04-02T21:00:10.184Z,46.24
2023-04-02T21:02:36.854Z,46.25
2023-04-02T21:05:03.928Z,45.96
2023-04-02T21:07:30.467Z,46.00
2023-04-02T21:09:57.122Z,45.85
2023-04-02T21:12:24.963Z,46.09
2023-04-02T21:14:57.035Z,45.98
2023-04-02T21:17:23.741Z,46.42
2023-04-02T21:19:50.229Z,46.27
2023-04-02T21:22:17.155Z,46.08
2023-04-02T21:24:43.598Z,45.98
2023-04-02T21:27:10.304Z,46.06
2023-04-02T21:29:36.891Z,46.39
2023-04-02T21:32:11.102Z,45.93
2023-04-02T21:34:41.188Z,46.16
2023-04-02T21:37:07.633Z,46.25
2023-04-02T21:39:34.295Z,46.19
2023-04-02T21:42:00.809Z,46.45
2023-04-02T21:44:27.353Z,46.07
2023-04-02T21:46:54.300Z,46.04
2023-04-02T21:49:22.652Z,46.27
2023-04-02T21:51:51.335Z,45.97
2023-04-02T21:54:17.824Z,46.06
2023-04-02T21:56:45.428Z,46.11
2023-04-02T21:59:12.445Z,45.83
2023-04-02T22:01:40.150Z,46.09
2023-04-02T22:04:07.275Z,46.37
2023-04-02T22:06:41.251Z,46.55
2023-04-02T22:09:09.498Z,46.21
2023-04-02T22:11:37.222Z,46.63
2023-04-02T22:14:03.968Z,46.10
2023-04-02T22:16:31.174Z,46.08
2023-04-02T22:18:59.350Z,46.13
2023-04-02T22:21:25.915Z,46.55
2023-04-02T22:23:52.636Z,46.59
2023-04-02T22:26:19.317Z,46.87
2023-04-02T22:28:46.034Z,46.77
2023-04-02T22:31:13.704Z,46.90
2023-04-02T22:33:40.928Z,46.46
2023-04-02T22:36:07.425Z,46.58
2023-04-02T22:38:34.344Z,46.62
2023-04-02T22:41:07.621Z,47.11
2023-04-02T22:43:34.442Z,46.87
2023-04-02T22:46:00.957Z,46.67
2023-04-02T22:48:27.519Z,47.02
2023-04-02T22:50:54.130Z,46.80
2023-04-02T22:53:21.095Z,47.15
2023-04-02T22:55:47.689Z,47.02
2023-04-02T22:58:14.225Z,47.86
2023-04-02T23:00:41.117Z,47.45
2023-04-02T23:03:07.693Z,47.42
2023-04-02T23:05:34.140Z,47.76
2023-04-02T23:08:00.986Z,48.02
2023-04-02T23:10:28.993Z,48.48
2023-04-02T23:12:57.232Z,48.47
2023-04-02T23:15:23.757Z,48.37
2023-04-02T23:17:50.443Z,48.59
2023-04-02T23:20:16.903Z,48.35
2023-04-02T23:22:43.475Z,48.79
2023-04-02T23:25:10.062Z,48.41
2023-04-02T23:27:36.833Z,48.34
2023-04-02T23:30:03.745Z,48.50
2023-04-02T23:32:30.236Z,49.00
2023-04-02T23:34:56.706Z,48.63
2023-04-02T23:37:23.192Z,48.97
2023-04-02T23:39:49.709Z,48.41
2023-04-02T23:42:16.231Z,48.36
2023-04-02T23:44:42.710Z,48.55
2023-04-02T23:47:09.332Z,48.77
2023-04-02T23:49:35.835Z,48.15
2023-04-02T23:52:02.293Z,48.55
2023-04-02T23:54:28.889Z,48.45
2023-04-02T23:56:55.420Z,48.67
2023-04-02T23:59:21.893Z,48.23
